Estación Meteorológica Peña el Pijo (Robertgarden) [ 01/17/18 13:52:30 CET ]

Fecha Hora Presion(HPa) Temp (°C) Humedad % Rocio (°C) Viento ( m/s) Direccion Lluvia 1Hora(mm) Lluvia 24H(mm) LLuvia Total(mm)
2018-Jan-04 01:01:50 1019.900 4.6 79 1.2         27.97
2018-Jan-04 02:01:41 1019.200 5.9 80 2.7         27.97
2018-Jan-04 03:01:44 1018.800 5.8 81 2.8         27.97
2018-Jan-04 04:07:03 1018.800 6.6 80 3.4         27.97
2018-Jan-04 05:01:46 1018.300 5.4 81 2.4         27.97
2018-Jan-04 06:01:54 1017.900 5.1 81 2.1         27.97
2018-Jan-04 07:01:48 1017.600 5.1 82 2.2         27.97
2018-Jan-04 08:01:56 1017.700 4.1 82 1.3         27.97
2018-Jan-04 09:01:47 1017.800 3.6 83 1.0         27.97
2018-Jan-04 10:01:47 1017.500 8.1 85 5.7         27.97
2018-Jan-04 11:01:52 1017.600 14.9 72 9.9         27.97
2018-Jan-04 12:01:50 1017.100 18.8 49 7.9 1.2 NW     27.97
2018-Jan-04 13:02:05 1016.000 18.7 44 6.1         27.97
2018-Jan-04 14:02:00 1015.100 19.8 41 6.1 2.3 NNW     27.97
2018-Jan-04 15:01:47 1014.600 19.9 39 5.5         27.97
2018-Jan-04 16:01:54 1014.300 18.5 40 4.6 2.3 NNE     27.97
2018-Jan-04 17:01:57 1013.800 15.9 45 3.9         27.97
2018-Jan-04 18:01:44 1013.400 13.9 50 3.7         27.97
2018-Jan-04 19:01:51 1013.500 11.9 54 2.8         27.97
2018-Jan-04 20:01:52 1013.700 8.9 60 1.6         27.97
2018-Jan-04 21:01:41 1013.500 7.6 65 1.4         27.97
2018-Jan-04 22:02:02 1013.500 10.3 66 4.2         27.97
2018-Jan-04 23:01:42 1013.100 9.1 69 3.7 0.6 NNW     27.97

Temperatura Máxima:19°    Temperatura Mínima:
Presión Máxima:1019.900 Hpa    Presión Mínima:1013.100 Hpa


Volver